Time;durP1;ratioP1;P1;durP2;ratioP2;P2;SDS_P1;SDS_P2;PMS_P1;PMS_P2;Temp;Humidity;BMP_temperature;BMP_pressure;BME280_temperature;BME280_humidity;BME280_pressure;Samples;Min_cycle;Max_cycle;Signal;HPM_P1;HPM_P2
2022/09/09 00:01:41;;;;;;;11.27;2.55;;;24.50;99.90;;;;;;5032041;28;20037;-73
2022/09/09 00:04:32;;;;;;;8.18;1.85;;;24.50;99.90;;;;;;5031566;28;20595;-74
2022/09/09 00:07:13;;;;;;;8.02;2.15;;;24.50;99.90;;;;;;5019665;28;20096;-74
2022/09/09 00:10:05;;;;;;;6.82;1.70;;;24.50;99.90;;;;;;5029615;28;20029;-74
2022/09/09 00:12:34;;;;;;;12.18;2.00;;;24.50;99.90;;;;;;5019154;28;20086;-73
2022/09/09 00:15:12;;;;;;;5.72;1.90;;;24.50;99.90;;;;;;5029595;28;20053;-73
2022/09/09 00:18:01;;;;;;;9.13;2.42;;;24.50;99.90;;;;;;5046413;28;20400;-74
2022/09/09 00:21:02;;;;;;;8.57;2.13;;;24.50;99.90;;;;;;5028470;28;20029;-74
2022/09/09 00:23:40;;;;;;;9.52;2.25;;;24.50;99.90;;;;;;5032141;28;20404;-74
2022/09/09 00:26:29;;;;;;;8.98;2.38;;;24.50;99.90;;;;;;5030138;28;20118;-73
2022/09/09 00:29:08;;;;;;;9.50;2.13;;;24.50;99.90;;;;;;5031662;28;20038;-73
2022/09/09 00:31:34;;;;;;;7.53;2.45;;;24.60;99.90;;;;;;5030854;28;20057;-74
2022/09/09 00:34:17;;;;;;;7.90;2.20;;;24.60;99.90;;;;;;5032249;28;20172;-73
2022/09/09 00:36:44;;;;;;;9.63;2.50;;;24.60;99.90;;;;;;5005537;28;20400;-74
2022/09/09 00:39:34;;;;;;;8.05;2.53;;;24.60;99.90;;;;;;5035519;28;20033;-73
2022/09/09 00:42:09;;;;;;;8.15;2.80;;;24.50;99.90;;;;;;5027104;28;20029;-74
2022/09/09 00:44:37;;;;;;;8.15;2.60;;;24.50;99.90;;;;;;5044896;28;20036;-73
2022/09/09 00:47:31;;;;;;;7.40;2.70;;;24.50;99.90;;;;;;5031042;28;20057;-74
2022/09/09 00:50:10;;;;;;;7.63;2.50;;;24.50;99.90;;;;;;5037119;28;20053;-74
2022/09/09 00:52:39;;;;;;;8.52;2.58;;;24.50;99.90;;;;;;5024330;28;20033;-74
2022/09/09 00:55:15;;;;;;;9.38;2.88;;;24.50;99.90;;;;;;5025102;28;20041;-74
2022/09/09 00:57:42;;;;;;;7.30;2.83;;;24.50;99.90;;;;;;5041595;28;20033;-73
2022/09/09 01:00:19;;;;;;;6.07;2.30;;;24.40;99.90;;;;;;5030584;28;20041;-73
2022/09/09 01:03:02;;;;;;;11.35;2.63;;;24.40;99.90;;;;;;5031807;28;20044;-74
2022/09/09 01:05:42;;;;;;;8.40;2.78;;;24.40;99.90;;;;;;5027543;28;20376;-73
2022/09/09 01:08:30;;;;;;;9.52;2.50;;;24.30;99.90;;;;;;5046265;28;20033;-74
2022/09/09 01:10:58;;;;;;;9.98;2.70;;;24.30;99.90;;;;;;5021769;28;20045;-74
2022/09/09 01:13:30;;;;;;;5.95;2.58;;;24.30;99.90;;;;;;5028882;28;20074;-73
2022/09/09 01:15:59;;;;;;;6.93;2.25;;;24.30;99.90;;;;;;5029559;28;20056;-74
2022/09/09 01:18:34;;;;;;;10.02;2.83;;;24.30;99.90;;;;;;5028775;28;20079;-73
2022/09/09 01:21:15;;;;;;;6.95;2.45;;;24.30;99.90;;;;;;5030704;28;20526;-74
2022/09/09 01:24:10;;;;;;;6.90;2.58;;;24.30;99.90;;;;;;5041678;28;20038;-74
2022/09/09 01:26:47;;;;;;;6.35;2.17;;;24.30;99.90;;;;;;5034986;28;20534;-74
2022/09/09 01:29:16;;;;;;;7.95;2.58;;;24.10;99.90;;;;;;5066460;28;20159;-74
2022/09/09 01:31:56;;;;;;;5.50;2.13;;;24.00;99.90;;;;;;5051499;28;20037;-73
2022/09/09 01:34:24;;;;;;;7.88;2.30;;;24.10;99.90;;;;;;5052520;28;20225;-73
2022/09/09 01:37:04;;;;;;;9.02;2.40;;;24.00;99.90;;;;;;5053857;28;20037;-73
2022/09/09 01:39:31;;;;;;;7.13;2.17;;;23.90;99.90;;;;;;5046811;28;20057;-73
2022/09/09 01:41:59;;;;;;;8.77;2.30;;;23.90;99.90;;;;;;5045750;28;20090;-73
2022/09/09 01:44:26;;;;;;;7.78;2.92;;;24.00;99.90;;;;;;5043836;28;20750;-73
2022/09/09 01:46:53;;;;;;;10.82;3.03;;;24.10;99.90;;;;;;5055844;28;20123;-73
2022/09/09 01:49:19;;;;;;;7.47;2.63;;;24.10;99.90;;;;;;5047062;28;20111;-73
2022/09/09 01:51:53;;;;;;;8.40;2.50;;;24.00;99.90;;;;;;5048358;28;20124;-73
2022/09/09 01:54:21;;;;;;;5.15;2.20;;;24.00;99.90;;;;;;5050716;28;20037;-73
2022/09/09 01:57:33;;;;;;;9.07;2.13;;;24.00;99.90;;;;;;5038982;28;20518;-73
2022/09/09 02:00:08;;;;;;;7.07;2.13;;;23.90;99.90;;;;;;5026126;28;20396;-73
2022/09/09 02:03:01;;;;;;;6.93;1.83;;;23.90;99.90;;;;;;5029396;28;20030;-72
2022/09/09 02:05:45;;;;;;;7.85;2.33;;;23.90;99.90;;;;;;5047414;28;20073;-74
2022/09/09 02:08:37;;;;;;;6.97;1.85;;;23.90;99.90;;;;;;5048004;28;20037;-73
2022/09/09 02:11:12;;;;;;;6.40;1.92;;;23.80;99.90;;;;;;5043014;28;20032;-73
2022/09/09 02:13:39;;;;;;;6.70;2.28;;;23.80;99.90;;;;;;5036522;28;20044;-73
2022/09/09 02:16:20;;;;;;;6.25;1.73;;;23.80;99.90;;;;;;5038987;28;20025;-73
2022/09/09 02:18:55;;;;;;;11.32;2.40;;;23.70;99.90;;;;;;5047470;28;20048;-73
2022/09/09 02:21:23;;;;;;;5.93;1.88;;;23.70;99.90;;;;;;5043707;28;20036;-74
2022/09/09 02:23:51;;;;;;;4.82;1.75;;;23.70;99.90;;;;;;5048804;28;20175;-74
2022/09/09 02:26:23;;;;;;;11.70;2.10;;;23.70;99.90;;;;;;5048918;28;20029;-75
2022/09/09 02:28:50;;;;;;;5.93;1.83;;;23.60;99.90;;;;;;5054630;28;20052;-74
2022/09/09 02:31:23;;;;;;;4.95;1.60;;;23.60;99.90;;;;;;5084198;28;20103;-74
2022/09/09 02:33:57;;;;;;;8.43;2.20;;;23.60;99.90;;;;;;5048423;28;20034;-73
2022/09/09 02:36:26;;;;;;;8.27;1.92;;;23.60;99.90;;;;;;5063912;28;20052;-74
2022/09/09 02:38:53;;;;;;;8.88;2.08;;;23.60;99.90;;;;;;5051394;28;20079;-73
2022/09/09 02:41:41;;;;;;;5.93;1.95;;;23.60;99.90;;;;;;5049339;28;20033;-74
2022/09/09 02:44:18;;;;;;;7.05;1.90;;;23.60;99.90;;;;;;5050130;28;20506;-75
2022/09/09 02:46:44;;;;;;;8.18;1.92;;;23.60;99.90;;;;;;5055646;28;20091;-73
2022/09/09 02:49:24;;;;;;;8.45;1.88;;;23.70;99.90;;;;;;5047376;28;20055;-73
2022/09/09 02:52:08;;;;;;;10.48;1.70;;;23.70;99.90;;;;;;5044970;28;20040;-74
2022/09/09 02:54:38;;;;;;;10.10;2.20;;;23.70;99.90;;;;;;5025020;28;20044;-74
2022/09/09 02:57:20;;;;;;;7.90;1.90;;;23.80;99.90;;;;;;5025768;28;20033;-74
2022/09/09 02:59:47;;;;;;;4.63;1.60;;;23.80;99.90;;;;;;5029278;28;20063;-73
2022/09/09 03:02:12;;;;;;;5.13;1.33;;;23.80;99.90;;;;;;5025667;28;20489;-73
2022/09/09 03:04:39;;;;;;;4.80;1.35;;;23.90;99.90;;;;;;5028867;28;20088;-73
2022/09/09 03:07:06;;;;;;;6.40;1.70;;;24.00;99.90;;;;;;5023270;28;20051;-73
2022/09/09 03:09:32;;;;;;;4.85;1.40;;;24.00;99.90;;;;;;5026037;28;20666;-74
2022/09/09 03:11:59;;;;;;;5.18;1.45;;;24.00;99.90;;;;;;5031310;28;20033;-74
2022/09/09 03:14:25;;;;;;;4.88;1.40;;;24.00;99.90;;;;;;5035407;28;20033;-73
2022/09/09 03:17:00;;;;;;;7.40;1.50;;;24.10;99.90;;;;;;5032827;28;20191;-73
2022/09/09 03:19:27;;;;;;;4.05;1.63;;;24.00;99.90;;;;;;5032401;28;20033;-73
2022/09/09 03:21:54;;;;;;;11.40;1.67;;;23.90;99.90;;;;;;5031921;28;20033;-73
2022/09/09 03:24:21;;;;;;;5.15;1.60;;;23.90;99.90;;;;;;5031396;28;20030;-73
2022/09/09 03:26:46;;;;;;;4.07;1.40;;;23.90;99.90;;;;;;5033756;28;20039;-73
2022/09/09 03:29:12;;;;;;;4.05;1.42;;;23.90;99.90;;;;;;5028198;28;20136;-73
2022/09/09 03:31:39;;;;;;;6.43;1.58;;;23.90;99.90;;;;;;5030768;28;20041;-75
2022/09/09 03:34:06;;;;;;;4.50;1.40;;;23.70;99.90;;;;;;5034050;28;20037;-75
2022/09/09 03:36:32;;;;;;;7.25;1.30;;;23.70;99.90;;;;;;5035387;28;20079;-73
2022/09/09 03:38:59;;;;;;;6.03;1.40;;;23.70;99.90;;;;;;5030247;28;20124;-73
2022/09/09 03:41:26;;;;;;;3.40;1.25;;;23.60;99.90;;;;;;5031391;28;20044;-73
2022/09/09 03:43:52;;;;;;;4.32;1.20;;;23.60;99.90;;;;;;5047474;28;20041;-73
2022/09/09 03:46:19;;;;;;;4.72;1.48;;;23.70;99.90;;;;;;5040216;28;20052;-74
2022/09/09 03:48:45;;;;;;;4.10;1.40;;;23.70;99.90;;;;;;5039042;28;20037;-73
2022/09/09 03:51:11;;;;;;;3.22;1.30;;;23.70;99.90;;;;;;5029610;28;20038;-73
2022/09/09 03:53:37;;;;;;;7.43;1.48;;;23.70;99.90;;;;;;5036954;28;20044;-72
2022/09/09 03:56:06;;;;;;;4.80;1.40;;;23.70;99.90;;;;;;5019372;28;20160;-73
2022/09/09 03:58:37;;;;;;;4.97;1.70;;;23.70;99.90;;;;;;5030169;28;20057;-74
2022/09/09 04:01:08;;;;;;;5.55;1.38;;;23.70;99.90;;;;;;5039653;28;20116;-74
2022/09/09 04:03:34;;;;;;;3.40;1.20;;;23.80;99.90;;;;;;5029754;28;20100;-73
2022/09/09 04:06:03;;;;;;;7.35;1.45;;;23.80;99.90;;;;;;5025111;28;20510;-73
2022/09/09 04:08:31;;;;;;;4.13;1.20;;;23.80;99.90;;;;;;5065168;28;20364;-72
2022/09/09 04:10:57;;;;;;;5.72;1.42;;;23.90;99.90;;;;;;5024870;28;20045;-73
2022/09/09 04:13:24;;;;;;;2.58;1.45;;;23.80;99.90;;;;;;5029127;28;20441;-73
2022/09/09 04:15:59;;;;;;;4.35;1.48;;;23.80;99.90;;;;;;5028905;28;20417;-74
2022/09/09 04:18:26;;;;;;;4.30;1.35;;;23.70;99.90;;;;;;5028761;28;20397;-73
2022/09/09 04:20:52;;;;;;;3.25;1.45;;;23.60;99.90;;;;;;5031757;28;20469;-74
2022/09/09 04:23:20;;;;;;;11.07;1.73;;;23.60;99.90;;;;;;5028688;28;20440;-73
2022/09/09 04:25:51;;;;;;;5.93;1.73;;;23.60;99.90;;;;;;5038399;28;20045;-74
2022/09/09 04:28:18;;;;;;;3.93;1.27;;;23.60;99.90;;;;;;5035804;28;20507;-73
2022/09/09 04:30:45;;;;;;;5.40;1.63;;;23.60;99.90;;;;;;5029534;28;20271;-74
2022/09/09 04:33:12;;;;;;;5.80;1.60;;;23.70;99.90;;;;;;5050086;28;20035;-73
2022/09/09 04:35:38;;;;;;;6.45;1.83;;;23.70;99.90;;;;;;5034467;28;20110;-73
2022/09/09 04:38:06;;;;;;;7.43;1.85;;;23.60;99.90;;;;;;5031077;28;20048;-76
2022/09/09 04:40:33;;;;;;;5.70;1.90;;;23.60;99.90;;;;;;5029784;28;20105;-73
2022/09/09 04:42:59;;;;;;;8.65;2.20;;;23.50;99.90;;;;;;5050221;28;20037;-73
2022/09/09 04:45:26;;;;;;;8.13;2.10;;;23.50;99.90;;;;;;5032022;28;20052;-74
2022/09/09 04:47:52;;;;;;;6.70;2.10;;;23.50;99.90;;;;;;5026606;28;20033;-73
2022/09/09 04:50:18;;;;;;;9.73;2.25;;;23.50;99.90;;;;;;5031142;28;20033;-73
2022/09/09 04:52:44;;;;;;;11.60;2.72;;;23.50;99.90;;;;;;5035154;28;20038;-73
2022/09/09 04:55:10;;;;;;;6.80;1.95;;;23.50;99.90;;;;;;5047402;28;20026;-73
2022/09/09 04:57:36;;;;;;;7.15;2.00;;;23.50;99.90;;;;;;5029775;28;20071;-73
2022/09/09 05:00:03;;;;;;;6.13;2.10;;;23.40;99.90;;;;;;5027951;28;20041;-73
2022/09/09 05:02:30;;;;;;;3.28;1.60;;;23.40;99.90;;;;;;5028244;28;20042;-73
2022/09/09 05:04:56;;;;;;;4.22;1.73;;;23.30;99.90;;;;;;5029160;28;20052;-74
2022/09/09 05:07:22;;;;;;;4.85;1.58;;;23.20;99.90;;;;;;5031629;28;20024;-74
2022/09/09 05:09:49;;;;;;;6.80;2.22;;;23.20;99.90;;;;;;5031171;28;20029;-74
2022/09/09 05:12:16;;;;;;;6.43;1.85;;;23.10;99.90;;;;;;5030267;28;20042;-74
2022/09/09 05:14:43;;;;;;;8.30;1.52;;;23.10;99.90;;;;;;5033498;28;20110;-74
2022/09/09 05:17:09;;;;;;;6.07;1.70;;;23.20;99.90;;;;;;5029717;28;20134;-74
2022/09/09 05:19:35;;;;;;;7.35;2.15;;;23.10;99.90;;;;;;5038051;28;20037;-73
2022/09/09 05:22:01;;;;;;;7.82;1.80;;;23.10;99.90;;;;;;5026316;28;20040;-74
2022/09/09 05:24:27;;;;;;;6.18;1.67;;;23.10;99.90;;;;;;5031800;28;20524;-74
2022/09/09 05:26:53;;;;;;;7.57;2.15;;;23.10;99.90;;;;;;5031473;28;20408;-73
2022/09/09 05:29:19;;;;;;;8.85;3.17;;;23.10;99.90;;;;;;5031578;28;20041;-74
2022/09/09 05:31:45;;;;;;;8.85;4.07;;;23.10;99.90;;;;;;5034759;28;20038;-74
2022/09/09 05:34:11;;;;;;;5.80;2.03;;;23.10;99.90;;;;;;5018937;28;20080;-75
2022/09/09 05:36:37;;;;;;;7.75;2.10;;;23.10;99.90;;;;;;5019768;28;20427;-74
2022/09/09 05:39:03;;;;;;;7.57;2.13;;;23.20;99.90;;;;;;5031577;28;20025;-74
2022/09/09 05:41:30;;;;;;;4.88;1.77;;;23.20;99.90;;;;;;5030584;28;20128;-73
2022/09/09 05:43:56;;;;;;;7.65;1.83;;;23.20;99.90;;;;;;5031346;28;20069;-74
2022/09/09 05:46:24;;;;;;;7.45;2.22;;;23.20;99.90;;;;;;5045887;28;20041;-74
2022/09/09 05:48:51;;;;;;;4.88;2.10;;;23.30;99.90;;;;;;5029396;28;20042;-74
2022/09/09 05:51:26;;;;;;;7.93;1.60;;;23.30;99.90;;;;;;5032335;28;20144;-74
2022/09/09 05:53:52;;;;;;;9.77;1.85;;;23.30;99.90;;;;;;5030885;28;20039;-74
2022/09/09 05:56:25;;;;;;;5.63;1.90;;;23.30;99.90;;;;;;5025668;28;20111;-74
2022/09/09 05:58:53;;;;;;;8.27;2.05;;;23.40;99.90;;;;;;5028059;28;20048;-74
2022/09/09 06:01:31;;;;;;;10.48;2.60;;;23.40;99.90;;;;;;5048057;28;20064;-74
2022/09/09 06:03:57;;;;;;;8.60;1.88;;;23.40;99.90;;;;;;5041218;28;20033;-73
2022/09/09 06:06:30;;;;;;;10.65;2.45;;;23.40;99.90;;;;;;5026557;28;20037;-74
2022/09/09 06:09:02;;;;;;;6.35;1.88;;;23.50;99.90;;;;;;5030392;28;20102;-73
2022/09/09 06:11:33;;;;;;;8.60;2.30;;;23.50;99.90;;;;;;5026168;28;20182;-75
2022/09/09 06:13:59;;;;;;;6.75;2.40;;;23.50;99.90;;;;;;5021803;28;20064;-74
2022/09/09 06:16:27;;;;;;;6.60;2.08;;;23.50;99.90;;;;;;5028843;28;20037;-74
2022/09/09 06:18:56;;;;;;;6.13;2.28;;;23.50;99.90;;;;;;5036234;28;20037;-74
2022/09/09 06:21:24;;;;;;;5.78;1.77;;;23.50;99.90;;;;;;5030061;28;20047;-75
2022/09/09 06:23:53;;;;;;;6.82;1.80;;;23.50;99.90;;;;;;5029791;28;20042;-75
2022/09/09 06:26:25;;;;;;;8.27;2.00;;;23.50;99.90;;;;;;5029723;28;20057;-74
2022/09/09 06:28:52;;;;;;;5.20;1.75;;;23.60;99.90;;;;;;5043978;28;20046;-75
2022/09/09 06:31:23;;;;;;;4.80;1.73;;;23.60;99.90;;;;;;5044315;28;21088;-74
2022/09/09 06:33:51;;;;;;;8.90;2.00;;;23.60;99.90;;;;;;5027743;28;20064;-75
2022/09/09 06:36:19;;;;;;;7.15;1.88;;;23.60;99.90;;;;;;5029375;28;20038;-75
2022/09/09 06:38:46;;;;;;;4.93;1.67;;;23.60;99.90;;;;;;5048386;28;20030;-73
2022/09/09 06:41:13;;;;;;;5.35;1.80;;;23.60;99.90;;;;;;5024479;28;20065;-73
2022/09/09 06:43:39;;;;;;;8.52;2.50;;;23.70;99.90;;;;;;5028182;28;20056;-73
2022/09/09 06:46:09;;;;;;;8.18;2.47;;;23.70;99.90;;;;;;5027919;28;20030;-75
2022/09/09 06:48:36;;;;;;;8.57;2.33;;;23.80;99.90;;;;;;5035011;28;20492;-75
2022/09/09 06:51:07;;;;;;;8.00;2.47;;;23.80;99.90;;;;;;5040663;28;20562;-75
2022/09/09 06:53:35;;;;;;;14.65;2.75;;;24.00;99.90;;;;;;5037531;28;20065;-75
2022/09/09 06:56:10;;;;;;;9.73;2.67;;;24.10;99.90;;;;;;5028603;28;20033;-77
2022/09/09 06:58:43;;;;;;;6.22;1.88;;;24.30;99.90;;;;;;5049698;28;20491;-75
2022/09/09 07:01:14;;;;;;;10.77;2.38;;;24.40;99.90;;;;;;5067171;28;20068;-74
2022/09/09 07:03:42;;;;;;;9.27;2.45;;;24.50;99.90;;;;;;5034826;28;20064;-75
2022/09/09 07:06:14;;;;;;;7.70;2.40;;;24.70;99.90;;;;;;5031788;28;20106;-73
2022/09/09 07:08:39;;;;;;;;;;;24.80;99.90;;;;;;5036380;28;20030;-74
2022/09/09 07:11:07;;;;;;;10.68;1.88;;;25.00;99.90;;;;;;5042186;28;19959;-74
2022/09/09 07:13:34;;;;;;;8.15;1.90;;;25.10;99.90;;;;;;5039480;28;20041;-74
2022/09/09 07:16:05;;;;;;;9.85;2.03;;;25.20;99.90;;;;;;5077034;28;20111;-75
2022/09/09 07:18:30;;;;;;;4.50;1.88;;;25.30;99.90;;;;;;5057694;28;20047;-74
2022/09/09 07:20:56;;;;;;;5.45;1.65;;;25.30;99.90;;;;;;5055002;28;20617;-74
2022/09/09 07:23:23;;;;;;;4.85;1.65;;;25.40;99.90;;;;;;5043161;28;20461;-75
2022/09/09 07:25:50;;;;;;;8.15;2.00;;;25.50;99.90;;;;;;5051420;28;20099;-75
2022/09/09 07:28:16;;;;;;;5.30;1.90;;;25.60;99.90;;;;;;5054266;28;20037;-74
2022/09/09 07:30:42;;;;;;;6.05;1.90;;;25.80;99.90;;;;;;5036725;28;20041;-74
2022/09/09 07:33:09;;;;;;;5.28;1.65;;;25.90;99.90;;;;;;5042715;28;20073;-76
2022/09/09 07:35:36;;;;;;;8.45;2.30;;;26.10;99.90;;;;;;5052712;28;20486;-74
2022/09/09 07:38:06;;;;;;;7.47;2.30;;;26.10;99.90;;;;;;5049091;28;20052;-74
2022/09/09 07:40:32;;;;;;;6.20;2.22;;;26.10;99.90;;;;;;5036838;28;20045;-73
2022/09/09 07:42:59;;;;;;;6.78;1.98;;;26.00;99.90;;;;;;5032138;28;20033;-75
2022/09/09 07:45:28;;;;;;;6.63;2.00;;;26.00;99.90;;;;;;5032305;28;20021;-73
2022/09/09 07:47:56;;;;;;;6.95;2.03;;;26.00;99.90;;;;;;5034386;28;20049;-74
2022/09/09 07:50:23;;;;;;;9.88;2.20;;;25.90;99.90;;;;;;5029738;28;20075;-74
2022/09/09 07:52:53;;;;;;;5.65;1.90;;;26.00;99.90;;;;;;5034121;28;20047;-74
2022/09/09 07:55:25;;;;;;;5.32;2.00;;;26.10;99.90;;;;;;5026020;28;20052;-73
2022/09/09 07:57:51;;;;;;;9.93;2.50;;;26.10;99.90;;;;;;5029388;28;20103;-73
2022/09/09 08:00:18;;;;;;;7.32;2.20;;;26.00;99.90;;;;;;5032183;28;20030;-74
2022/09/09 08:02:46;;;;;;;10.15;2.40;;;26.00;99.90;;;;;;5047115;28;20120;-74
2022/09/09 08:05:12;;;;;;;10.40;2.10;;;26.20;99.90;;;;;;5036241;28;20033;-73
2022/09/09 08:07:38;;;;;;;6.60;2.30;;;26.30;99.90;;;;;;5045214;28;20124;-74
2022/09/09 08:10:04;;;;;;;5.05;1.80;;;26.50;99.90;;;;;;5026804;28;20125;-73
2022/09/09 08:12:32;;;;;;;8.23;2.17;;;26.50;99.90;;;;;;5038015;28;20537;-74
2022/09/09 08:14:58;;;;;;;4.72;2.03;;;26.60;99.90;;;;;;5033746;28;20052;-74
2022/09/09 08:17:24;;;;;;;7.85;2.25;;;26.70;99.90;;;;;;5047985;28;20380;-74
2022/09/09 08:19:50;;;;;;;6.40;1.80;;;26.90;99.90;;;;;;5023520;28;20121;-74
2022/09/09 08:22:16;;;;;;;10.30;1.98;;;26.90;99.90;;;;;;5026742;28;20041;-74
2022/09/09 08:24:42;;;;;;;7.43;2.30;;;27.10;99.90;;;;;;5034470;28;20061;-74
2022/09/09 08:27:09;;;;;;;8.77;2.70;;;27.00;99.90;;;;;;5028746;28;20095;-74
2022/09/09 08:29:37;;;;;;;9.05;2.38;;;27.20;99.90;;;;;;5020537;28;20037;-75
2022/09/09 08:32:04;;;;;;;9.77;2.13;;;27.10;99.90;;;;;;5022112;28;20034;-75
2022/09/09 08:34:31;;;;;;;13.65;2.88;;;27.20;99.90;;;;;;5027881;28;20372;-74
2022/09/09 08:36:56;;;;;;;11.77;2.42;;;27.20;99.90;;;;;;5043023;28;20038;-74
2022/09/09 08:39:23;;;;;;;8.20;2.13;;;27.30;99.90;;;;;;5020961;28;20048;-74
2022/09/09 08:42:28;;;;;;;10.88;2.83;;;27.30;99.90;;;;;;5043910;28;20583;-75
2022/09/09 08:45:26;;;;;;;11.07;3.55;;;27.60;99.90;;;;;;5030838;28;20044;-74
2022/09/09 08:48:30;;;;;;;13.93;2.88;;;27.80;99.90;;;;;;5033318;28;20038;-74
2022/09/09 08:51:01;;;;;;;10.70;2.45;;;27.70;99.90;;;;;;5030511;28;20048;-74
2022/09/09 08:53:37;;;;;;;11.93;2.83;;;27.80;99.90;;;;;;5045424;28;20124;-73
2022/09/09 08:56:11;;;;;;;12.23;2.63;;;27.70;99.90;;;;;;5021203;28;20116;-75
2022/09/09 08:58:46;;;;;;;11.85;2.72;;;27.50;99.90;;;;;;5046140;28;20499;-74
2022/09/09 09:01:36;;;;;;;10.75;2.90;;;27.50;99.90;;;;;;5026515;28;20131;-73
2022/09/09 09:04:51;;;;;;;11.75;2.90;;;27.30;99.90;;;;;;5044676;28;20116;-74
2022/09/09 09:07:48;;;;;;;12.88;3.00;;;27.40;99.90;;;;;;5018518;28;20074;-73
2022/09/09 09:10:43;;;;;;;17.30;3.75;;;27.60;99.90;;;;;;5027068;28;20132;-75
2022/09/09 09:13:20;;;;;;;11.15;3.03;;;27.40;99.90;;;;;;5034215;28;20413;-75
2022/09/09 09:15:56;;;;;;;12.70;3.40;;;27.60;99.90;;;;;;5031611;28;20033;-75
2022/09/09 09:18:22;;;;;;;13.70;3.95;;;28.00;99.90;;;;;;5031359;28;20048;-74
2022/09/09 09:21:11;;;;;;;12.65;2.83;;;28.30;99.90;;;;;;5024795;28;20041;-75
2022/09/09 09:23:48;;;;;;;14.65;2.95;;;28.00;99.90;;;;;;5018564;28;20037;-74
2022/09/09 09:26:15;;;;;;;14.95;4.00;;;28.10;99.90;;;;;;5033003;28;20045;-73
2022/09/09 09:28:41;;;;;;;11.43;2.83;;;28.10;99.90;;;;;;5021867;28;20451;-74
2022/09/09 09:31:10;;;;;;;12.88;3.90;;;28.20;99.90;;;;;;5030645;28;20045;-74
2022/09/09 09:33:52;;;;;;;12.30;3.63;;;28.40;99.90;;;;;;5017231;28;20036;-74
2022/09/09 09:36:20;;;;;;;12.35;3.38;;;28.40;99.90;;;;;;5030797;28;20033;-75
2022/09/09 09:39:00;;;;;;;16.10;4.10;;;28.40;99.90;;;;;;5031315;28;20958;-74
2022/09/09 09:41:43;;;;;;;15.40;3.97;;;28.40;99.90;;;;;;5021705;28;20034;-74
2022/09/09 09:44:29;;;;;;;14.88;4.25;;;28.80;99.90;;;;;;5033692;28;20087;-74
2022/09/09 09:47:10;;;;;;;17.05;3.78;;;29.50;99.90;;;;;;5012587;28;20056;-73
2022/09/09 09:49:36;;;;;;;11.20;3.63;;;30.00;99.90;;;;;;5020280;28;20048;-74
2022/09/09 09:52:07;;;;;;;11.23;3.13;;;30.30;99.90;;;;;;5028628;28;20041;-74
2022/09/09 09:54:39;;;;;;;13.23;3.13;;;30.10;99.90;;;;;;5024756;28;20045;-75
2022/09/09 09:57:18;;;;;;;13.55;3.90;;;30.10;99.90;;;;;;5021815;28;20034;-74
2022/09/09 09:59:46;;;;;;;7.85;3.17;;;30.20;99.90;;;;;;5021729;28;20128;-74
2022/09/09 10:02:16;;;;;;;11.70;2.95;;;30.20;99.90;;;;;;5037347;28;20030;-74
2022/09/09 10:04:43;;;;;;;11.93;3.15;;;29.90;99.90;;;;;;5016364;28;20033;-73
2022/09/09 10:07:22;;;;;;;10.85;2.85;;;29.70;99.90;;;;;;5017169;28;20455;-74
2022/09/09 10:09:56;;;;;;;12.43;3.05;;;29.70;99.90;;;;;;5023515;28;20120;-73
2022/09/09 10:12:43;;;;;;;13.05;3.40;;;29.70;99.90;;;;;;5015406;28;20045;-74
2022/09/09 10:15:29;;;;;;;8.45;3.08;;;29.30;99.90;;;;;;5024111;28;20038;-74
2022/09/09 10:18:12;;;;;;;8.80;2.38;;;29.00;99.90;;;;;;5040470;28;20033;-74
2022/09/09 10:20:50;;;;;;;6.18;2.35;;;28.70;99.90;;;;;;5033917;28;20057;-74
2022/09/09 10:23:33;;;;;;;9.77;2.83;;;28.30;99.90;;;;;;5033053;28;20026;-74
2022/09/09 10:26:10;;;;;;;11.07;2.60;;;28.20;99.90;;;;;;5038924;28;20056;-75
2022/09/09 10:28:54;;;;;;;8.75;2.03;;;28.10;99.90;;;;;;5033576;28;20063;-73
2022/09/09 10:32:00;;;;;;;9.32;2.75;;;28.00;99.90;;;;;;5030444;28;20030;-74
2022/09/09 10:34:26;;;;;;;8.25;2.50;;;28.00;99.90;;;;;;5032907;28;20025;-74
2022/09/09 10:36:52;;;;;;;9.48;2.65;;;28.10;99.90;;;;;;5052374;28;20057;-74
2022/09/09 10:39:42;;;;;;;6.75;2.55;;;28.30;99.90;;;;;;5050616;28;20037;-75
2022/09/09 10:42:16;;;;;;;8.75;2.50;;;28.30;99.90;;;;;;5047055;28;20025;-75
2022/09/09 10:44:42;;;;;;;9.48;2.45;;;28.70;99.90;;;;;;5034657;28;20045;-74
2022/09/09 10:47:20;;;;;;;9.45;2.60;;;28.90;99.90;;;;;;5030564;28;20033;-74
2022/09/09 10:50:08;;;;;;;9.52;2.92;;;29.30;99.90;;;;;;5032519;28;20097;-73
2022/09/09 10:52:43;;;;;;;9.40;2.60;;;29.80;99.90;;;;;;5034082;28;20040;-75
2022/09/09 10:55:19;;;;;;;11.98;3.17;;;30.80;99.90;;;;;;5030669;28;20770;-74
2022/09/09 10:57:53;;;;;;;9.63;2.28;;;30.70;99.90;;;;;;5036378;28;20029;-74
2022/09/09 11:00:40;;;;;;;6.82;2.30;;;31.40;99.90;;;;;;5044059;28;20033;-76
2022/09/09 11:03:11;;;;;;;11.32;2.65;;;31.30;99.90;;;;;;5022659;28;20044;-74
2022/09/09 11:05:41;;;;;;;5.70;2.00;;;30.70;99.90;;;;;;5034777;28;20045;-73
2022/09/09 11:08:17;;;;;;;14.18;3.33;;;30.50;99.90;;;;;;5020542;28;21100;-75
2022/09/09 11:10:59;;;;;;;8.65;2.83;;;30.40;99.90;;;;;;5019689;28;20176;-73
2022/09/09 11:13:33;;;;;;;9.05;2.28;;;30.70;99.90;;;;;;5018700;28;20561;-74
2022/09/09 11:16:21;;;;;;;7.85;1.98;;;31.50;99.90;;;;;;5024439;28;20416;-75
2022/09/09 11:18:47;;;;;;;6.78;1.90;;;32.10;99.90;;;;;;5049438;28;20120;-74
2022/09/09 11:21:23;;;;;;;5.97;1.70;;;32.40;99.90;;;;;;5048313;28;20064;-73
2022/09/09 11:23:59;;;;;;;6.43;1.80;;;32.40;99.90;;;;;;5025343;28;20048;-75
2022/09/09 11:26:45;;;;;;;5.65;1.90;;;33.20;99.90;;;;;;5024120;28;20045;-73
2022/09/09 11:29:52;;;;;;;5.13;1.80;;;33.60;99.90;;;;;;5018197;28;20416;-74
2022/09/09 11:32:43;;;;;;;7.53;1.85;;;34.50;99.60;;;;;;5024676;28;20038;-75
2022/09/09 11:35:24;;;;;;;8.25;1.85;;;34.10;99.30;;;;;;5032642;28;20045;-75
2022/09/09 11:38:24;;;;;;;7.13;2.05;;;33.20;99.90;;;;;;5027935;28;20099;-75
2022/09/09 11:41:08;;;;;;;6.95;1.63;;;32.30;99.90;;;;;;5028936;28;20037;-74
2022/09/09 11:43:46;;;;;;;7.18;1.92;;;31.50;99.90;;;;;;5018961;28;20041;-73
2022/09/09 11:46:15;;;;;;;9.70;2.20;;;30.90;99.90;;;;;;5025250;28;20183;-74
2022/09/09 11:48:46;;;;;;;7.60;1.98;;;30.40;99.90;;;;;;5037858;28;20052;-74
2022/09/09 11:51:13;;;;;;;;;;;30.50;99.90;;;;;;5007097;28;20057;-74
2022/09/09 11:53:53;;;;;;;8.05;1.50;;;30.50;99.90;;;;;;5033926;28;19923;-74
2022/09/09 11:56:31;;;;;;;6.68;1.73;;;30.00;99.90;;;;;;5024901;28;20040;-74
2022/09/09 11:58:57;;;;;;;9.27;2.15;;;29.80;99.90;;;;;;5035225;28;20029;-75
2022/09/09 12:01:35;;;;;;;4.20;1.92;;;29.80;99.90;;;;;;5033820;28;20032;-74
2022/09/09 12:04:10;;;;;;;4.43;1.85;;;29.20;99.90;;;;;;5021385;28;20042;-74
2022/09/09 12:06:51;;;;;;;10.80;1.98;;;29.20;99.90;;;;;;5027667;28;20124;-73
2022/09/09 12:09:28;;;;;;;5.20;1.70;;;29.00;99.90;;;;;;5030301;28;20033;-74
2022/09/09 12:12:21;;;;;;;5.35;1.50;;;29.60;99.90;;;;;;5035951;28;20029;-73
2022/09/09 12:14:59;;;;;;;7.25;1.70;;;29.70;99.90;;;;;;5035373;28;20103;-74
2022/09/09 12:17:27;;;;;;;8.52;2.00;;;29.90;99.90;;;;;;5028344;28;20044;-73
2022/09/09 12:20:14;;;;;;;7.70;1.75;;;30.40;99.90;;;;;;5023674;28;20037;-75
2022/09/09 12:23:10;;;;;;;6.78;2.00;;;31.60;99.90;;;;;;5032677;28;20087;-74
2022/09/09 12:25:58;;;;;;;7.03;1.80;;;32.50;99.90;;;;;;5022593;28;20579;-74
2022/09/09 12:28:43;;;;;;;4.10;1.50;;;33.10;99.90;;;;;;5017889;28;20057;-75
2022/09/09 12:31:43;;;;;;;6.07;2.00;;;32.40;99.90;;;;;;5018553;28;20048;-74
2022/09/09 12:34:48;;;;;;;4.80;1.70;;;32.80;99.90;;;;;;5027556;28;20061;-75
2022/09/09 12:37:29;;;;;;;6.28;1.80;;;32.20;99.90;;;;;;5020941;28;20091;-74
2022/09/09 12:40:20;;;;;;;8.13;1.90;;;31.50;99.90;;;;;;5022778;28;20040;-73
2022/09/09 12:42:45;;;;;;;6.75;1.83;;;31.20;99.90;;;;;;5039528;28;20139;-73
2022/09/09 12:45:20;;;;;;;6.93;1.63;;;31.10;99.90;;;;;;5025003;28;20892;-74
2022/09/09 12:48:06;;;;;;;4.65;1.73;;;31.70;99.90;;;;;;5021337;28;20052;-74
2022/09/09 12:50:37;;;;;;;6.10;1.70;;;31.60;99.90;;;;;;5040567;28;20049;-75
2022/09/09 12:53:07;;;;;;;;;;;31.00;99.90;;;;;;5038744;28;20061;-74
2022/09/09 12:55:37;;;;;;;6.35;1.98;;;31.80;99.90;;;;;;5033762;28;19960;-75
2022/09/09 12:58:05;;;;;;;6.47;1.50;;;32.70;99.90;;;;;;5023883;28;20039;-75
2022/09/09 13:00:33;;;;;;;8.27;1.95;;;32.40;99.90;;;;;;5019219;28;20286;-75
2022/09/09 13:03:01;;;;;;;7.93;1.75;;;32.60;99.90;;;;;;5020277;28;20381;-75
2022/09/09 13:05:38;;;;;;;7.40;1.73;;;32.80;99.90;;;;;;5018556;28;20036;-75
2022/09/09 13:08:10;;;;;;;5.30;1.65;;;33.00;99.90;;;;;;5020352;28;20046;-74
2022/09/09 13:10:41;;;;;;;9.52;2.42;;;32.20;99.90;;;;;;5030157;28;20120;-74
2022/09/09 13:13:20;;;;;;;4.43;1.47;;;32.70;99.90;;;;;;5015136;28;20733;-75
2022/09/09 13:15:53;;;;;;;9.18;1.83;;;33.10;99.90;;;;;;5032920;28;20653;-74
2022/09/09 13:18:23;;;;;;;8.80;1.90;;;32.50;99.90;;;;;;5018027;28;20022;-75